Für Piloten

Informationen für Piloten zum Flugplatz Borken-Hoxfeld
Hier findest Du alle relevanten Informationen, die Du als Pilot benötigst, um Borken-Hoxfeld anzufliegen.

Flugplatz: Borken-Hoxfeld ICAO-Code: EDLY
Borken-Hoxfeld Info: 122,930 Mhz
GAFOR Gebiet: 32
Platzrunde: Motorflug; -> Südplatzrunde; Segelflug; -> Nordplatzrunde;
Landegebühr: z.Zt. 5,00 Euro
Platzhöhe: 48m üMSL
Pisten: 12/30 – 740 m x 30 m, GRAS
Betriebszeiten: PPR (in den Sommermonaten Mittagspause beachten)

 

Wetterforecast:

Available data for EDDL from the past 2 hours
DUESSELDORF
Metar
EDDL 042150Z 02003KT CAVOK 17/15 Q1012 NOSIG

21:50 UTC

Wind: 20° 3kt

Visibility:

Sky:

Temp: 17 deg C / 62.6 deg F

Dewpoint: 15 deg C / 59 deg F

Pressure: 1012 hPa

TAF
TAF EDDL 041700Z 0418/0524 06004KT 9999 FEW040 PROB30 TEMPO 0504/0508 4000 BR BECMG 0508/0511 19006KT TEMPO 0513/0519 SHRA BKN030CB PROB30 TEMPO 0514/0518 TSRA

Alle obigen Informationen ersetzen nicht die vorgeschriebene, persönliche Flugvorbereitung.